sensor_id;sensor_type;location;lat;lon;timestamp;P1;durP1;ratioP1;P2;durP2;ratioP2
55663;SDS011;41540;57.880;12.164;2023-02-12T00:06:31;75.68;;;13.27;;
55663;SDS011;41540;57.880;12.164;2023-02-12T00:16:32;101.90;;;12.85;;
55663;SDS011;41540;57.880;12.164;2023-02-12T00:26:32;59.03;;;10.32;;
55663;SDS011;41540;57.880;12.164;2023-02-12T00:36:32;93.72;;;16.73;;
55663;SDS011;41540;57.880;12.164;2023-02-12T00:46:33;71.45;;;16.92;;
55663;SDS011;41540;57.880;12.164;2023-02-12T00:56:33;108.38;;;16.23;;
55663;SDS011;41540;57.880;12.164;2023-02-12T01:06:33;88.50;;;19.50;;
55663;SDS011;41540;57.880;12.164;2023-02-12T01:16:34;135.25;;;19.63;;
55663;SDS011;41540;57.880;12.164;2023-02-12T01:26:35;100.82;;;17.08;;
55663;SDS011;41540;57.880;12.164;2023-02-12T01:36:35;61.20;;;15.10;;
55663;SDS011;41540;57.880;12.164;2023-02-12T01:46:36;117.15;;;19.85;;
55663;SDS011;41540;57.880;12.164;2023-02-12T01:56:36;105.70;;;21.33;;
55663;SDS011;41540;57.880;12.164;2023-02-12T02:06:39;149.52;;;22.05;;
55663;SDS011;41540;57.880;12.164;2023-02-12T02:16:41;172.53;;;26.70;;
55663;SDS011;41540;57.880;12.164;2023-02-12T02:36:44;196.98;;;22.13;;
55663;SDS011;41540;57.880;12.164;2023-02-12T02:46:47;136.13;;;21.87;;
55663;SDS011;41540;57.880;12.164;2023-02-12T02:56:49;113.18;;;21.90;;
55663;SDS011;41540;57.880;12.164;2023-02-12T03:06:58;163.88;;;19.60;;
55663;SDS011;41540;57.880;12.164;2023-02-12T03:17:08;109.65;;;15.02;;
55663;SDS011;41540;57.880;12.164;2023-02-12T03:27:10;138.57;;;15.55;;
55663;SDS011;41540;57.880;12.164;2023-02-12T03:37:17;259.90;;;26.90;;
55663;SDS011;41540;57.880;12.164;2023-02-12T03:47:26;284.33;;;32.10;;
55663;SDS011;41540;57.880;12.164;2023-02-12T03:57:33;221.00;;;20.77;;
55663;SDS011;41540;57.880;12.164;2023-02-12T04:07:36;195.80;;;23.88;;
55663;SDS011;41540;57.880;12.164;2023-02-12T04:27:48;142.82;;;18.05;;
55663;SDS011;41540;57.880;12.164;2023-02-12T04:37:50;110.18;;;14.02;;
55663;SDS011;41540;57.880;12.164;2023-02-12T04:47:51;166.65;;;19.00;;
55663;SDS011;41540;57.880;12.164;2023-02-12T04:57:52;101.60;;;12.07;;
55663;SDS011;41540;57.880;12.164;2023-02-12T05:07:52;364.20;;;34.85;;
55663;SDS011;41540;57.880;12.164;2023-02-12T05:17:52;602.85;;;85.20;;
55663;SDS011;41540;57.880;12.164;2023-02-12T05:27:52;230.35;;;29.63;;
55663;SDS011;41540;57.880;12.164;2023-02-12T05:37:55;292.27;;;37.13;;
55663;SDS011;41540;57.880;12.164;2023-02-12T05:47:55;191.73;;;24.98;;
55663;SDS011;41540;57.880;12.164;2023-02-12T05:57:56;51.28;;;6.82;;
55663;SDS011;41540;57.880;12.164;2023-02-12T06:07:56;63.10;;;7.82;;
55663;SDS011;41540;57.880;12.164;2023-02-12T06:17:56;24.75;;;5.90;;
55663;SDS011;41540;57.880;12.164;2023-02-12T06:27:56;74.95;;;10.52;;
55663;SDS011;41540;57.880;12.164;2023-02-12T06:37:57;55.28;;;9.68;;
55663;SDS011;41540;57.880;12.164;2023-02-12T06:47:57;62.28;;;10.88;;
55663;SDS011;41540;57.880;12.164;2023-02-12T06:57:57;43.38;;;8.07;;
55663;SDS011;41540;57.880;12.164;2023-02-12T07:07:57;34.55;;;7.25;;
55663;SDS011;41540;57.880;12.164;2023-02-12T07:17:58;38.67;;;7.28;;
55663;SDS011;41540;57.880;12.164;2023-02-12T07:27:58;64.88;;;10.63;;
55663;SDS011;41540;57.880;12.164;2023-02-12T07:37:58;56.00;;;10.02;;
55663;SDS011;41540;57.880;12.164;2023-02-12T07:47:58;30.13;;;8.07;;
55663;SDS011;41540;57.880;12.164;2023-02-12T07:57:59;48.60;;;9.65;;
55663;SDS011;41540;57.880;12.164;2023-02-12T08:07:59;44.50;;;8.30;;
55663;SDS011;41540;57.880;12.164;2023-02-12T08:17:59;48.67;;;8.43;;
55663;SDS011;41540;57.880;12.164;2023-02-12T08:28:00;35.08;;;9.45;;
55663;SDS011;41540;57.880;12.164;2023-02-12T08:38:00;38.58;;;7.70;;
55663;SDS011;41540;57.880;12.164;2023-02-12T08:48:01;48.03;;;8.55;;
55663;SDS011;41540;57.880;12.164;2023-02-12T08:58:01;30.63;;;6.80;;
55663;SDS011;41540;57.880;12.164;2023-02-12T09:08:02;43.15;;;7.70;;
55663;SDS011;41540;57.880;12.164;2023-02-12T09:18:03;41.63;;;7.68;;
55663;SDS011;41540;57.880;12.164;2023-02-12T09:28:03;50.07;;;7.50;;
55663;SDS011;41540;57.880;12.164;2023-02-12T09:38:04;25.92;;;7.25;;
55663;SDS011;41540;57.880;12.164;2023-02-12T09:58:32;33.35;;;7.18;;
55663;SDS011;41540;57.880;12.164;2023-02-12T10:29:12;19.27;;;4.57;;
55663;SDS011;41540;57.880;12.164;2023-02-12T10:49:19;21.20;;;5.53;;
55663;SDS011;41540;57.880;12.164;2023-02-12T10:59:21;21.47;;;5.93;;
55663;SDS011;41540;57.880;12.164;2023-02-12T11:09:26;19.50;;;4.53;;
55663;SDS011;41540;57.880;12.164;2023-02-12T11:19:28;24.23;;;5.18;;
55663;SDS011;41540;57.880;12.164;2023-02-12T11:29:29;12.68;;;3.78;;
55663;SDS011;41540;57.880;12.164;2023-02-12T11:39:36;14.95;;;3.65;;
55663;SDS011;41540;57.880;12.164;2023-02-12T11:49:42;20.92;;;4.50;;
55663;SDS011;41540;57.880;12.164;2023-02-12T11:59:47;15.02;;;4.20;;
55663;SDS011;41540;57.880;12.164;2023-02-12T12:09:49;24.73;;;5.10;;
55663;SDS011;41540;57.880;12.164;2023-02-12T12:20:04;20.85;;;4.45;;
55663;SDS011;41540;57.880;12.164;2023-02-12T12:30:07;24.65;;;4.65;;
55663;SDS011;41540;57.880;12.164;2023-02-12T13:20:50;7.25;;;3.05;;
55663;SDS011;41540;57.880;12.164;2023-02-12T13:30:53;14.70;;;3.05;;
55663;SDS011;41540;57.880;12.164;2023-02-12T13:40:57;15.15;;;3.35;;
55663;SDS011;41540;57.880;12.164;2023-02-12T13:51:04;13.93;;;3.08;;
55663;SDS011;41540;57.880;12.164;2023-02-12T14:11:08;10.30;;;3.35;;
55663;SDS011;41540;57.880;12.164;2023-02-12T14:41:29;8.40;;;3.22;;
55663;SDS011;41540;57.880;12.164;2023-02-12T14:51:42;16.08;;;3.90;;
55663;SDS011;41540;57.880;12.164;2023-02-12T15:01:45;11.85;;;3.97;;
55663;SDS011;41540;57.880;12.164;2023-02-12T15:11:52;18.52;;;3.72;;
55663;SDS011;41540;57.880;12.164;2023-02-12T15:21:54;12.07;;;4.07;;
55663;SDS011;41540;57.880;12.164;2023-02-12T15:31:55;24.17;;;4.80;;
55663;SDS011;41540;57.880;12.164;2023-02-12T15:41:56;23.42;;;4.55;;
55663;SDS011;41540;57.880;12.164;2023-02-12T15:51:56;75.95;;;61.97;;
55663;SDS011;41540;57.880;12.164;2023-02-12T16:01:58;20.98;;;7.22;;
55663;SDS011;41540;57.880;12.164;2023-02-12T16:12:02;15.60;;;6.37;;
55663;SDS011;41540;57.880;12.164;2023-02-12T16:22:07;20.02;;;13.55;;
55663;SDS011;41540;57.880;12.164;2023-02-12T16:32:10;25.95;;;9.45;;
55663;SDS011;41540;57.880;12.164;2023-02-12T16:42:24;13.25;;;7.35;;
55663;SDS011;41540;57.880;12.164;2023-02-12T17:02:28;44.35;;;17.90;;
55663;SDS011;41540;57.880;12.164;2023-02-12T17:12:28;31.92;;;13.82;;
55663;SDS011;41540;57.880;12.164;2023-02-12T17:22:29;32.22;;;16.55;;
55663;SDS011;41540;57.880;12.164;2023-02-12T17:32:29;29.65;;;10.07;;
55663;SDS011;41540;57.880;12.164;2023-02-12T17:42:29;48.88;;;9.95;;
55663;SDS011;41540;57.880;12.164;2023-02-12T17:52:29;24.30;;;6.85;;
55663;SDS011;41540;57.880;12.164;2023-02-12T18:02:30;26.92;;;6.85;;
55663;SDS011;41540;57.880;12.164;2023-02-12T18:12:30;21.77;;;12.20;;
55663;SDS011;41540;57.880;12.164;2023-02-12T18:22:31;16.02;;;6.15;;
55663;SDS011;41540;57.880;12.164;2023-02-12T18:32:32;33.33;;;5.88;;
55663;SDS011;41540;57.880;12.164;2023-02-12T18:42:32;38.17;;;17.30;;
55663;SDS011;41540;57.880;12.164;2023-02-12T18:52:32;21.30;;;5.80;;
55663;SDS011;41540;57.880;12.164;2023-02-12T19:02:33;29.58;;;15.60;;
55663;SDS011;41540;57.880;12.164;2023-02-12T19:12:33;21.15;;;7.60;;
55663;SDS011;41540;57.880;12.164;2023-02-12T19:22:33;17.38;;;7.00;;
55663;SDS011;41540;57.880;12.164;2023-02-12T19:32:35;21.70;;;5.07;;
55663;SDS011;41540;57.880;12.164;2023-02-12T19:42:35;23.63;;;6.38;;
55663;SDS011;41540;57.880;12.164;2023-02-12T19:52:35;20.30;;;3.90;;
55663;SDS011;41540;57.880;12.164;2023-02-12T20:02:35;21.42;;;5.32;;
55663;SDS011;41540;57.880;12.164;2023-02-12T20:12:36;22.42;;;4.15;;
55663;SDS011;41540;57.880;12.164;2023-02-12T20:22:39;23.95;;;6.60;;
55663;SDS011;41540;57.880;12.164;2023-02-12T20:32:39;45.83;;;28.00;;
55663;SDS011;41540;57.880;12.164;2023-02-12T20:42:40;20.17;;;8.40;;
55663;SDS011;41540;57.880;12.164;2023-02-12T20:52:41;46.20;;;34.20;;
55663;SDS011;41540;57.880;12.164;2023-02-12T21:02:41;51.70;;;14.35;;
55663;SDS011;41540;57.880;12.164;2023-02-12T21:12:41;44.55;;;17.15;;
55663;SDS011;41540;57.880;12.164;2023-02-12T21:22:42;32.17;;;11.55;;
55663;SDS011;41540;57.880;12.164;2023-02-12T21:32:42;34.83;;;8.52;;
55663;SDS011;41540;57.880;12.164;2023-02-12T21:42:42;27.83;;;8.27;;
55663;SDS011;41540;57.880;12.164;2023-02-12T21:52:43;27.02;;;8.35;;
55663;SDS011;41540;57.880;12.164;2023-02-12T22:02:43;131.25;;;67.97;;
55663;SDS011;41540;57.880;12.164;2023-02-12T22:12:43;44.33;;;17.00;;
55663;SDS011;41540;57.880;12.164;2023-02-12T22:22:43;25.20;;;10.57;;
55663;SDS011;41540;57.880;12.164;2023-02-12T22:32:43;62.80;;;48.63;;
55663;SDS011;41540;57.880;12.164;2023-02-12T22:42:44;26.17;;;11.85;;
55663;SDS011;41540;57.880;12.164;2023-02-12T22:52:44;57.45;;;15.27;;
55663;SDS011;41540;57.880;12.164;2023-02-12T23:02:44;36.00;;;10.95;;
55663;SDS011;41540;57.880;12.164;2023-02-12T23:12:45;42.45;;;7.30;;
55663;SDS011;41540;57.880;12.164;2023-02-12T23:22:45;33.28;;;9.15;;
55663;SDS011;41540;57.880;12.164;2023-02-12T23:32:45;36.17;;;9.38;;
55663;SDS011;41540;57.880;12.164;2023-02-12T23:42:45;23.08;;;6.47;;
55663;SDS011;41540;57.880;12.164;2023-02-12T23:52:45;31.65;;;5.80;;
